sensor_id;sensor_type;location;lat;lon;timestamp;pressure;altitude;pressure_sealevel;temperature;humidity
77299;BME280;66361;52.034;20.656;2023-04-08T00:00:31;100346.75;;;3.89;100.00
77299;BME280;66361;52.034;20.656;2023-04-08T00:04:50;100347.44;;;3.96;100.00
77299;BME280;66361;52.034;20.656;2023-04-08T00:08:55;100354.09;;;4.05;100.00
77299;BME280;66361;52.034;20.656;2023-04-08T00:51:41;100360.28;;;2.25;100.00
77299;BME280;66361;52.034;20.656;2023-04-08T00:55:45;100360.91;;;2.01;100.00
77299;BME280;66361;52.034;20.656;2023-04-08T00:59:52;100371.81;;;1.81;100.00
77299;BME280;66361;52.034;20.656;2023-04-08T01:04:00;100374.00;;;1.61;100.00
77299;BME280;66361;52.034;20.656;2023-04-08T01:08:07;100381.19;;;1.49;100.00
77299;BME280;66361;52.034;20.656;2023-04-08T01:12:19;100383.25;;;1.35;100.00
77299;BME280;66361;52.034;20.656;2023-04-08T01:16:24;100392.31;;;1.16;100.00
77299;BME280;66361;52.034;20.656;2023-04-08T01:20:28;100397.66;;;1.10;100.00
77299;BME280;66361;52.034;20.656;2023-04-08T01:24:35;100401.22;;;1.06;100.00
77299;BME280;66361;52.034;20.656;2023-04-08T01:28:43;100402.16;;;1.02;100.00
77299;BME280;66361;52.034;20.656;2023-04-08T01:32:49;100389.25;;;0.97;100.00
77299;BME280;66361;52.034;20.656;2023-04-08T01:36:53;100391.28;;;0.83;100.00
77299;BME280;66361;52.034;20.656;2023-04-08T01:40:58;100391.34;;;0.79;100.00
77299;BME280;66361;52.034;20.656;2023-04-08T01:45:04;100392.50;;;0.64;100.00
77299;BME280;66361;52.034;20.656;2023-04-08T01:49:08;100394.44;;;0.53;100.00
77299;BME280;66361;52.034;20.656;2023-04-08T01:53:11;100397.19;;;0.44;100.00
77299;BME280;66361;52.034;20.656;2023-04-08T01:57:22;100401.72;;;0.34;100.00
77299;BME280;66361;52.034;20.656;2023-04-08T02:01:28;100396.44;;;0.37;100.00
77299;BME280;66361;52.034;20.656;2023-04-08T02:05:33;100396.56;;;0.31;100.00
77299;BME280;66361;52.034;20.656;2023-04-08T02:09:36;100395.03;;;0.21;100.00
77299;BME280;66361;52.034;20.656;2023-04-08T02:13:39;100390.91;;;0.10;100.00
77299;BME280;66361;52.034;20.656;2023-04-08T02:17:46;100403.94;;;0.05;100.00
77299;BME280;66361;52.034;20.656;2023-04-08T02:21:54;100410.19;;;-0.08;100.00
77299;BME280;66361;52.034;20.656;2023-04-08T02:26:00;100421.59;;;-0.18;100.00
77299;BME280;66361;52.034;20.656;2023-04-08T02:30:09;100421.75;;;-0.29;100.00
77299;BME280;66361;52.034;20.656;2023-04-08T02:34:16;100428.84;;;-0.41;100.00
77299;BME280;66361;52.034;20.656;2023-04-08T02:38:22;100427.22;;;-0.49;100.00
77299;BME280;66361;52.034;20.656;2023-04-08T02:42:30;100434.19;;;-0.52;100.00
77299;BME280;66361;52.034;20.656;2023-04-08T02:46:33;100440.34;;;-0.61;100.00
77299;BME280;66361;52.034;20.656;2023-04-08T02:50:38;100454.25;;;-0.68;100.00
77299;BME280;66361;52.034;20.656;2023-04-08T02:54:42;100455.97;;;-0.67;100.00
77299;BME280;66361;52.034;20.656;2023-04-08T02:58:45;100459.53;;;-0.74;100.00
77299;BME280;66361;52.034;20.656;2023-04-08T03:02:48;100458.75;;;-0.82;100.00
77299;BME280;66361;52.034;20.656;2023-04-08T03:06:53;100463.16;;;-0.90;100.00
77299;BME280;66361;52.034;20.656;2023-04-08T03:10:56;100461.47;;;-0.94;100.00
77299;BME280;66361;52.034;20.656;2023-04-08T03:14:59;100467.53;;;-0.93;100.00
77299;BME280;66361;52.034;20.656;2023-04-08T03:19:03;100475.28;;;-0.92;100.00
77299;BME280;66361;52.034;20.656;2023-04-08T03:23:08;100469.28;;;-0.97;100.00
77299;BME280;66361;52.034;20.656;2023-04-08T03:27:13;100471.06;;;-1.01;100.00
77299;BME280;66361;52.034;20.656;2023-04-08T03:31:17;100479.75;;;-1.05;100.00
77299;BME280;66361;52.034;20.656;2023-04-08T03:35:23;100479.69;;;-1.02;100.00
77299;BME280;66361;52.034;20.656;2023-04-08T03:39:31;100485.69;;;-0.95;100.00
77299;BME280;66361;52.034;20.656;2023-04-08T03:43:34;100486.53;;;-0.93;100.00
77299;BME280;66361;52.034;20.656;2023-04-08T03:47:39;100489.09;;;-0.91;100.00
77299;BME280;66361;52.034;20.656;2023-04-08T03:51:43;100497.81;;;-1.00;100.00
77299;BME280;66361;52.034;20.656;2023-04-08T03:55:49;100493.56;;;-1.04;100.00
77299;BME280;66361;52.034;20.656;2023-04-08T03:59:53;100492.75;;;-1.11;100.00
77299;BME280;66361;52.034;20.656;2023-04-08T04:03:56;100505.72;;;-1.11;100.00
77299;BME280;66361;52.034;20.656;2023-04-08T04:07:59;100498.72;;;-1.03;100.00
77299;BME280;66361;52.034;20.656;2023-04-08T04:12:04;100506.50;;;-1.04;100.00
77299;BME280;66361;52.034;20.656;2023-04-08T04:16:12;100511.75;;;-1.10;100.00
77299;BME280;66361;52.034;20.656;2023-04-08T04:20:16;100516.09;;;-1.14;100.00
77299;BME280;66361;52.034;20.656;2023-04-08T04:24:19;100516.00;;;-1.05;100.00
77299;BME280;66361;52.034;20.656;2023-04-08T04:28:23;100528.75;;;-0.85;100.00
77299;BME280;66361;52.034;20.656;2023-04-08T04:32:26;100530.31;;;-0.72;100.00
77299;BME280;66361;52.034;20.656;2023-04-08T04:36:29;100537.19;;;-0.68;100.00
77299;BME280;66361;52.034;20.656;2023-04-08T04:40:33;100537.13;;;-0.62;100.00
77299;BME280;66361;52.034;20.656;2023-04-08T04:44:37;100545.66;;;-0.54;100.00
77299;BME280;66361;52.034;20.656;2023-04-08T04:48:40;100546.38;;;-0.39;100.00
77299;BME280;66361;52.034;20.656;2023-04-08T04:52:43;100549.63;;;-0.24;100.00
77299;BME280;66361;52.034;20.656;2023-04-08T04:56:46;100548.50;;;-0.03;100.00
77299;BME280;66361;52.034;20.656;2023-04-08T05:00:50;100552.53;;;0.16;100.00
77299;BME280;66361;52.034;20.656;2023-04-08T05:04:53;100551.88;;;0.60;100.00
77299;BME280;66361;52.034;20.656;2023-04-08T05:08:56;100555.47;;;2.29;100.00
77299;BME280;66361;52.034;20.656;2023-04-08T05:12:59;100564.91;;;5.34;98.33
77299;BME280;66361;52.034;20.656;2023-04-08T05:17:04;100566.28;;;7.63;87.85
77299;BME280;66361;52.034;20.656;2023-04-08T05:21:07;100572.94;;;9.52;78.09
77299;BME280;66361;52.034;20.656;2023-04-08T05:25:10;100573.16;;;10.76;70.56
77299;BME280;66361;52.034;20.656;2023-04-08T05:29:13;100583.88;;;12.06;64.94
77299;BME280;66361;52.034;20.656;2023-04-08T05:33:17;100580.91;;;13.46;55.35
77299;BME280;66361;52.034;20.656;2023-04-08T05:37:20;100584.03;;;13.78;47.89
77299;BME280;66361;52.034;20.656;2023-04-08T05:41:24;100582.31;;;15.35;48.98
77299;BME280;66361;52.034;20.656;2023-04-08T05:45:27;100588.72;;;16.12;44.65
77299;BME280;66361;52.034;20.656;2023-04-08T05:49:34;100595.38;;;16.73;40.17
77299;BME280;66361;52.034;20.656;2023-04-08T05:53:42;100587.38;;;17.05;38.50
77299;BME280;66361;52.034;20.656;2023-04-08T05:57:46;100602.22;;;18.13;39.19
77299;BME280;66361;52.034;20.656;2023-04-08T06:01:49;100604.06;;;18.12;34.64
77299;BME280;66361;52.034;20.656;2023-04-08T06:05:54;100606.88;;;18.51;35.87
77299;BME280;66361;52.034;20.656;2023-04-08T06:09:57;100618.28;;;19.12;34.12
77299;BME280;66361;52.034;20.656;2023-04-08T06:14:00;100612.81;;;19.42;32.53
77299;BME280;66361;52.034;20.656;2023-04-08T06:18:03;100614.66;;;19.32;32.11
77299;BME280;66361;52.034;20.656;2023-04-08T06:22:08;100622.66;;;19.13;33.68
77299;BME280;66361;52.034;20.656;2023-04-08T06:26:11;100623.34;;;19.15;31.81
77299;BME280;66361;52.034;20.656;2023-04-08T06:30:14;100621.50;;;18.96;33.74
77299;BME280;66361;52.034;20.656;2023-04-08T06:34:20;100630.31;;;19.65;32.96
77299;BME280;66361;52.034;20.656;2023-04-08T06:38:25;100636.59;;;20.03;30.71
77299;BME280;66361;52.034;20.656;2023-04-08T06:42:28;100632.94;;;20.04;30.90
77299;BME280;66361;52.034;20.656;2023-04-08T06:46:31;100627.34;;;20.89;29.77
77299;BME280;66361;52.034;20.656;2023-04-08T06:50:33;100633.59;;;20.15;31.37
77299;BME280;66361;52.034;20.656;2023-04-08T06:54:38;100636.28;;;20.15;31.02
77299;BME280;66361;52.034;20.656;2023-04-08T06:58:44;100635.06;;;20.37;30.06
77299;BME280;66361;52.034;20.656;2023-04-08T07:02:47;100631.88;;;21.94;30.63
77299;BME280;66361;52.034;20.656;2023-04-08T07:06:51;100644.28;;;21.87;27.33
77299;BME280;66361;52.034;20.656;2023-04-08T07:10:55;100646.78;;;20.36;29.09
77299;BME280;66361;52.034;20.656;2023-04-08T07:15:00;100645.13;;;21.17;31.27
77299;BME280;66361;52.034;20.656;2023-04-08T07:19:03;100658.88;;;22.10;29.39
77299;BME280;66361;52.034;20.656;2023-04-08T07:23:06;100653.09;;;22.23;28.48
77299;BME280;66361;52.034;20.656;2023-04-08T07:27:10;100649.72;;;21.78;28.52
77299;BME280;66361;52.034;20.656;2023-04-08T07:31:14;100652.84;;;22.68;28.37
77299;BME280;66361;52.034;20.656;2023-04-08T07:35:18;100663.81;;;22.15;26.99
77299;BME280;66361;52.034;20.656;2023-04-08T07:39:25;100661.38;;;22.30;27.63
77299;BME280;66361;52.034;20.656;2023-04-08T07:43:29;100668.31;;;23.00;27.19
77299;BME280;66361;52.034;20.656;2023-04-08T07:47:34;100659.81;;;23.45;26.29
77299;BME280;66361;52.034;20.656;2023-04-08T07:51:37;100656.34;;;22.60;28.10
77299;BME280;66361;52.034;20.656;2023-04-08T07:55:41;100667.72;;;23.38;27.48
77299;BME280;66361;52.034;20.656;2023-04-08T07:59:48;100673.06;;;22.80;25.81
77299;BME280;66361;52.034;20.656;2023-04-08T08:03:51;100656.53;;;22.67;27.11
77299;BME280;66361;52.034;20.656;2023-04-08T08:07:55;100671.88;;;21.54;28.41
77299;BME280;66361;52.034;20.656;2023-04-08T08:11:58;100667.28;;;21.90;28.04
77299;BME280;66361;52.034;20.656;2023-04-08T08:16:06;100666.09;;;21.84;30.07
77299;BME280;66361;52.034;20.656;2023-04-08T08:20:12;100669.38;;;21.78;28.30
77299;BME280;66361;52.034;20.656;2023-04-08T08:24:16;100665.47;;;21.72;29.64
77299;BME280;66361;52.034;20.656;2023-04-08T08:28:18;100665.88;;;22.89;29.01
77299;BME280;66361;52.034;20.656;2023-04-08T08:32:23;100664.41;;;22.94;27.76
77299;BME280;66361;52.034;20.656;2023-04-08T08:36:26;100665.16;;;20.95;29.12
77299;BME280;66361;52.034;20.656;2023-04-08T08:40:29;100655.22;;;21.05;29.79
77299;BME280;66361;52.034;20.656;2023-04-08T08:44:36;100661.00;;;21.99;30.86
77299;BME280;66361;52.034;20.656;2023-04-08T08:48:40;100647.44;;;22.08;32.53
77299;BME280;66361;52.034;20.656;2023-04-08T08:52:49;100655.03;;;22.73;27.64
77299;BME280;66361;52.034;20.656;2023-04-08T08:56:52;100655.88;;;21.88;29.14
77299;BME280;66361;52.034;20.656;2023-04-08T09:00:56;100655.09;;;22.47;28.48
77299;BME280;66361;52.034;20.656;2023-04-08T09:05:02;100659.03;;;22.94;27.90
77299;BME280;66361;52.034;20.656;2023-04-08T09:09:08;100666.00;;;23.21;27.92
77299;BME280;66361;52.034;20.656;2023-04-08T09:13:14;100671.09;;;23.40;27.05
77299;BME280;66361;52.034;20.656;2023-04-08T09:17:31;100668.78;;;22.10;28.73
77299;BME280;66361;52.034;20.656;2023-04-08T09:21:41;100660.28;;;22.14;28.95
77299;BME280;66361;52.034;20.656;2023-04-08T09:25:44;100660.88;;;22.08;29.07
77299;BME280;66361;52.034;20.656;2023-04-08T09:29:47;100671.25;;;22.21;30.48
77299;BME280;66361;52.034;20.656;2023-04-08T09:33:56;100671.47;;;22.10;28.06
77299;BME280;66361;52.034;20.656;2023-04-08T09:38:01;100668.22;;;21.98;29.29
77299;BME280;66361;52.034;20.656;2023-04-08T09:42:05;100665.59;;;22.06;27.76
77299;BME280;66361;52.034;20.656;2023-04-08T09:46:14;100666.31;;;21.55;31.58
77299;BME280;66361;52.034;20.656;2023-04-08T09:50:25;100659.81;;;21.58;30.29
77299;BME280;66361;52.034;20.656;2023-04-08T09:54:37;100658.97;;;22.01;29.42
77299;BME280;66361;52.034;20.656;2023-04-08T09:58:50;100660.03;;;21.64;31.64
77299;BME280;66361;52.034;20.656;2023-04-08T10:02:55;100663.88;;;22.05;29.81
77299;BME280;66361;52.034;20.656;2023-04-08T10:07:03;100658.06;;;20.76;31.90
77299;BME280;66361;52.034;20.656;2023-04-08T10:11:13;100660.47;;;20.43;31.45
77299;BME280;66361;52.034;20.656;2023-04-08T10:15:24;100651.88;;;19.64;35.03
77299;BME280;66361;52.034;20.656;2023-04-08T10:19:38;100661.38;;;18.59;33.62
77299;BME280;66361;52.034;20.656;2023-04-08T10:24:06;100659.25;;;17.18;37.05
77299;BME280;66361;52.034;20.656;2023-04-08T10:28:28;100652.53;;;16.14;38.36
77299;BME280;66361;52.034;20.656;2023-04-08T10:32:39;100663.84;;;16.51;40.78
77299;BME280;66361;52.034;20.656;2023-04-08T10:36:44;100653.53;;;16.68;38.38
77299;BME280;66361;52.034;20.656;2023-04-08T10:40:48;100640.06;;;16.47;42.38
77299;BME280;66361;52.034;20.656;2023-04-08T10:44:53;100649.38;;;16.75;41.03
77299;BME280;66361;52.034;20.656;2023-04-08T10:48:59;100637.22;;;16.93;41.10
77299;BME280;66361;52.034;20.656;2023-04-08T10:53:03;100631.94;;;16.82;42.45
77299;BME280;66361;52.034;20.656;2023-04-08T10:57:07;100629.25;;;16.82;39.38
77299;BME280;66361;52.034;20.656;2023-04-08T11:01:12;100627.72;;;16.46;37.68
77299;BME280;66361;52.034;20.656;2023-04-08T11:05:14;100617.31;;;16.32;40.25
77299;BME280;66361;52.034;20.656;2023-04-08T11:09:17;100626.66;;;16.49;39.06
77299;BME280;66361;52.034;20.656;2023-04-08T11:13:22;100622.41;;;16.35;41.77
77299;BME280;66361;52.034;20.656;2023-04-08T11:17:28;100621.69;;;16.44;37.96
77299;BME280;66361;52.034;20.656;2023-04-08T11:21:31;100623.34;;;16.12;40.27
77299;BME280;66361;52.034;20.656;2023-04-08T11:25:36;100614.50;;;16.23;39.66
77299;BME280;66361;52.034;20.656;2023-04-08T11:29:44;100612.97;;;16.54;41.08
77299;BME280;66361;52.034;20.656;2023-04-08T11:33:52;100616.00;;;16.49;37.89
77299;BME280;66361;52.034;20.656;2023-04-08T11:37:55;100610.03;;;16.12;39.16
77299;BME280;66361;52.034;20.656;2023-04-08T11:42:04;100612.00;;;16.21;40.97
77299;BME280;66361;52.034;20.656;2023-04-08T11:46:08;100615.84;;;16.39;39.97
77299;BME280;66361;52.034;20.656;2023-04-08T11:50:21;100608.47;;;16.43;40.05
77299;BME280;66361;52.034;20.656;2023-04-08T11:54:28;100609.31;;;16.32;38.45
77299;BME280;66361;52.034;20.656;2023-04-08T11:58:31;100609.78;;;16.37;37.72
77299;BME280;66361;52.034;20.656;2023-04-08T12:02:35;100606.50;;;16.34;38.99
77299;BME280;66361;52.034;20.656;2023-04-08T12:06:40;100605.06;;;15.96;38.65
77299;BME280;66361;52.034;20.656;2023-04-08T12:10:44;100599.03;;;16.17;38.18
77299;BME280;66361;52.034;20.656;2023-04-08T12:14:46;100595.66;;;16.26;39.42
77299;BME280;66361;52.034;20.656;2023-04-08T12:18:49;100589.78;;;15.65;39.16
77299;BME280;66361;52.034;20.656;2023-04-08T12:22:53;100589.06;;;15.04;42.38
77299;BME280;66361;52.034;20.656;2023-04-08T12:26:56;100588.91;;;15.30;43.65
77299;BME280;66361;52.034;20.656;2023-04-08T12:30:59;100577.06;;;14.99;41.73
77299;BME280;66361;52.034;20.656;2023-04-08T12:35:03;100576.19;;;15.22;40.25
77299;BME280;66361;52.034;20.656;2023-04-08T12:39:07;100565.31;;;15.60;38.69
77299;BME280;66361;52.034;20.656;2023-04-08T12:43:11;100566.78;;;15.64;37.15
77299;BME280;66361;52.034;20.656;2023-04-08T12:47:14;100573.09;;;15.74;37.65
77299;BME280;66361;52.034;20.656;2023-04-08T12:51:17;100561.94;;;15.23;38.32
77299;BME280;66361;52.034;20.656;2023-04-08T12:55:22;100563.22;;;14.83;40.15
77299;BME280;66361;52.034;20.656;2023-04-08T12:59:29;100561.13;;;14.39;39.40
77299;BME280;66361;52.034;20.656;2023-04-08T13:03:34;100561.06;;;14.64;40.37
77299;BME280;66361;52.034;20.656;2023-04-08T13:07:37;100550.91;;;15.17;39.02
77299;BME280;66361;52.034;20.656;2023-04-08T13:11:43;100547.88;;;15.45;36.94
77299;BME280;66361;52.034;20.656;2023-04-08T13:15:48;100549.84;;;15.54;38.02
77299;BME280;66361;52.034;20.656;2023-04-08T13:19:52;100546.81;;;15.70;37.47
77299;BME280;66361;52.034;20.656;2023-04-08T13:23:55;100544.84;;;15.38;40.26
77299;BME280;66361;52.034;20.656;2023-04-08T13:28:00;100547.28;;;15.18;39.84
77299;BME280;66361;52.034;20.656;2023-04-08T13:32:03;100539.91;;;15.21;39.79
77299;BME280;66361;52.034;20.656;2023-04-08T13:36:06;100536.84;;;15.03;38.71
77299;BME280;66361;52.034;20.656;2023-04-08T13:40:10;100533.84;;;15.08;40.46
77299;BME280;66361;52.034;20.656;2023-04-08T13:44:15;100530.00;;;15.47;38.23
77299;BME280;66361;52.034;20.656;2023-04-08T13:48:18;100525.78;;;15.67;40.64
77299;BME280;66361;52.034;20.656;2023-04-08T13:52:22;100520.47;;;15.67;38.05
77299;BME280;66361;52.034;20.656;2023-04-08T13:56:26;100523.97;;;15.67;37.86
77299;BME280;66361;52.034;20.656;2023-04-08T14:00:31;100519.59;;;15.66;38.38
77299;BME280;66361;52.034;20.656;2023-04-08T14:04:35;100521.31;;;15.67;39.17
77299;BME280;66361;52.034;20.656;2023-04-08T14:08:43;100506.31;;;15.77;39.82
77299;BME280;66361;52.034;20.656;2023-04-08T14:12:46;100514.94;;;15.92;40.09
77299;BME280;66361;52.034;20.656;2023-04-08T14:16:52;100524.47;;;15.83;37.81
77299;BME280;66361;52.034;20.656;2023-04-08T14:20:55;100515.88;;;15.91;37.52
77299;BME280;66361;52.034;20.656;2023-04-08T14:24:59;100515.88;;;15.80;38.62
77299;BME280;66361;52.034;20.656;2023-04-08T14:29:05;100508.97;;;15.66;39.86
77299;BME280;66361;52.034;20.656;2023-04-08T14:33:11;100505.94;;;15.60;41.92
77299;BME280;66361;52.034;20.656;2023-04-08T14:37:14;100507.38;;;15.52;41.76
77299;BME280;66361;52.034;20.656;2023-04-08T14:41:18;100504.72;;;15.41;41.35
77299;BME280;66361;52.034;20.656;2023-04-08T14:45:21;100505.31;;;15.45;43.36
77299;BME280;66361;52.034;20.656;2023-04-08T14:49:26;100501.94;;;15.43;41.28
77299;BME280;66361;52.034;20.656;2023-04-08T14:53:31;100510.69;;;15.32;40.18
77299;BME280;66361;52.034;20.656;2023-04-08T14:57:37;100504.28;;;15.24;43.48
77299;BME280;66361;52.034;20.656;2023-04-08T15:01:40;100511.44;;;14.99;41.26
77299;BME280;66361;52.034;20.656;2023-04-08T15:05:46;100505.47;;;14.85;41.67
77299;BME280;66361;52.034;20.656;2023-04-08T15:09:51;100499.72;;;14.67;43.45
77299;BME280;66361;52.034;20.656;2023-04-08T15:13:59;100502.56;;;14.53;41.75
77299;BME280;66361;52.034;20.656;2023-04-08T15:18:03;100513.38;;;14.26;42.58
77299;BME280;66361;52.034;20.656;2023-04-08T15:22:08;100508.53;;;14.07;45.21
77299;BME280;66361;52.034;20.656;2023-04-08T15:26:12;100513.53;;;13.87;46.28
77299;BME280;66361;52.034;20.656;2023-04-08T15:30:15;100512.94;;;13.71;47.46
77299;BME280;66361;52.034;20.656;2023-04-08T15:34:24;100505.41;;;13.52;47.91
77299;BME280;66361;52.034;20.656;2023-04-08T15:38:30;100519.38;;;13.41;48.95
77299;BME280;66361;52.034;20.656;2023-04-08T15:42:34;100518.41;;;13.30;48.85
77299;BME280;66361;52.034;20.656;2023-04-08T15:46:37;100524.25;;;13.22;49.54
77299;BME280;66361;52.034;20.656;2023-04-08T15:50:40;100514.91;;;13.17;47.84
77299;BME280;66361;52.034;20.656;2023-04-08T15:54:49;100519.56;;;13.13;47.88
77299;BME280;66361;52.034;20.656;2023-04-08T15:58:52;100521.66;;;13.08;47.19
77299;BME280;66361;52.034;20.656;2023-04-08T16:02:54;100528.34;;;13.01;48.65
77299;BME280;66361;52.034;20.656;2023-04-08T16:06:58;100524.81;;;12.88;48.61
77299;BME280;66361;52.034;20.656;2023-04-08T16:11:03;100535.56;;;12.72;48.88
77299;BME280;66361;52.034;20.656;2023-04-08T16:15:09;100532.75;;;12.61;49.76
77299;BME280;66361;52.034;20.656;2023-04-08T16:19:12;100536.94;;;12.51;50.72
77299;BME280;66361;52.034;20.656;2023-04-08T16:23:15;100532.44;;;12.39;51.67
77299;BME280;66361;52.034;20.656;2023-04-08T16:27:23;100531.41;;;12.27;51.53
77299;BME280;66361;52.034;20.656;2023-04-08T16:31:26;100530.31;;;12.17;52.40
77299;BME280;66361;52.034;20.656;2023-04-08T16:35:34;100544.09;;;12.08;51.91
77299;BME280;66361;52.034;20.656;2023-04-08T16:39:39;100542.00;;;11.99;52.02
77299;BME280;66361;52.034;20.656;2023-04-08T16:43:44;100545.25;;;11.90;52.84
77299;BME280;66361;52.034;20.656;2023-04-08T16:47:47;100546.66;;;11.81;53.68
77299;BME280;66361;52.034;20.656;2023-04-08T16:51:53;100549.13;;;11.70;54.10
77299;BME280;66361;52.034;20.656;2023-04-08T16:55:56;100552.41;;;11.59;54.53
77299;BME280;66361;52.034;20.656;2023-04-08T17:00:03;100552.78;;;11.53;54.41
77299;BME280;66361;52.034;20.656;2023-04-08T17:04:06;100560.22;;;11.47;54.61
77299;BME280;66361;52.034;20.656;2023-04-08T17:08:09;100555.38;;;11.39;55.58
77299;BME280;66361;52.034;20.656;2023-04-08T17:12:14;100564.44;;;11.35;54.83
77299;BME280;66361;52.034;20.656;2023-04-08T17:16:21;100559.59;;;11.28;56.04
77299;BME280;66361;52.034;20.656;2023-04-08T17:20:24;100567.84;;;11.23;55.28
77299;BME280;66361;52.034;20.656;2023-04-08T17:24:28;100564.59;;;11.18;55.98
77299;BME280;66361;52.034;20.656;2023-04-08T17:28:36;100570.38;;;11.09;57.22
77299;BME280;66361;52.034;20.656;2023-04-08T17:32:42;100570.75;;;11.03;56.96
77299;BME280;66361;52.034;20.656;2023-04-08T17:36:46;100574.56;;;10.97;57.38
77299;BME280;66361;52.034;20.656;2023-04-08T17:40:49;100580.47;;;10.87;58.43
77299;BME280;66361;52.034;20.656;2023-04-08T17:44:52;100583.72;;;10.76;60.21
77299;BME280;66361;52.034;20.656;2023-04-08T17:48:57;100580.09;;;10.63;62.32
77299;BME280;66361;52.034;20.656;2023-04-08T17:53:00;100580.78;;;10.51;63.84
77299;BME280;66361;52.034;20.656;2023-04-08T17:57:04;100587.66;;;10.38;65.44
77299;BME280;66361;52.034;20.656;2023-04-08T18:01:07;100592.75;;;10.25;70.15
77299;BME280;66361;52.034;20.656;2023-04-08T18:05:12;100590.97;;;10.10;69.78
77299;BME280;66361;52.034;20.656;2023-04-08T18:09:16;100594.31;;;9.96;71.46
77299;BME280;66361;52.034;20.656;2023-04-08T18:13:19;100593.28;;;9.83;70.07
77299;BME280;66361;52.034;20.656;2023-04-08T18:17:22;100596.38;;;9.74;72.35
77299;BME280;66361;52.034;20.656;2023-04-08T18:21:26;100599.97;;;9.73;67.15
77299;BME280;66361;52.034;20.656;2023-04-08T18:25:30;100602.31;;;9.95;62.59
77299;BME280;66361;52.034;20.656;2023-04-08T18:29:35;100604.66;;;10.16;61.87
77299;BME280;66361;52.034;20.656;2023-04-08T18:33:39;100619.59;;;10.33;61.36
77299;BME280;66361;52.034;20.656;2023-04-08T18:37:43;100618.38;;;10.39;61.52
77299;BME280;66361;52.034;20.656;2023-04-08T18:41:46;100625.44;;;10.38;61.60
77299;BME280;66361;52.034;20.656;2023-04-08T18:45:49;100622.06;;;10.36;61.77
77299;BME280;66361;52.034;20.656;2023-04-08T18:49:55;100631.13;;;10.31;61.96
77299;BME280;66361;52.034;20.656;2023-04-08T18:54:02;100623.41;;;10.28;61.44
77299;BME280;66361;52.034;20.656;2023-04-08T18:58:06;100632.41;;;10.23;62.13
77299;BME280;66361;52.034;20.656;2023-04-08T19:02:12;100628.47;;;10.15;63.97
77299;BME280;66361;52.034;20.656;2023-04-08T19:06:15;100628.97;;;10.06;63.49
77299;BME280;66361;52.034;20.656;2023-04-08T19:10:23;100629.44;;;9.97;64.88
77299;BME280;66361;52.034;20.656;2023-04-08T19:14:26;100629.72;;;9.92;65.01
77299;BME280;66361;52.034;20.656;2023-04-08T19:18:32;100644.66;;;9.92;66.05
77299;BME280;66361;52.034;20.656;2023-04-08T19:22:35;100645.94;;;10.00;66.51
77299;BME280;66361;52.034;20.656;2023-04-08T19:26:43;100653.34;;;9.94;69.01
77299;BME280;66361;52.034;20.656;2023-04-08T19:30:46;100648.56;;;9.85;70.71
77299;BME280;66361;52.034;20.656;2023-04-08T19:34:52;100654.22;;;9.77;72.95
77299;BME280;66361;52.034;20.656;2023-04-08T19:38:55;100650.56;;;9.62;73.71
77299;BME280;66361;52.034;20.656;2023-04-08T19:43:00;100648.56;;;9.50;75.22
77299;BME280;66361;52.034;20.656;2023-04-08T19:47:06;100645.69;;;9.38;77.93
77299;BME280;66361;52.034;20.656;2023-04-08T19:51:14;100647.22;;;9.24;78.99
77299;BME280;66361;52.034;20.656;2023-04-08T19:55:20;100652.22;;;9.12;81.38
77299;BME280;66361;52.034;20.656;2023-04-08T19:59:25;100658.16;;;8.98;83.51
77299;BME280;66361;52.034;20.656;2023-04-08T20:03:28;100656.13;;;8.86;85.27
77299;BME280;66361;52.034;20.656;2023-04-08T20:07:34;100645.31;;;8.73;86.59
77299;BME280;66361;52.034;20.656;2023-04-08T20:11:39;100651.06;;;8.63;87.98
77299;BME280;66361;52.034;20.656;2023-04-08T20:15:44;100652.34;;;8.54;90.43
77299;BME280;66361;52.034;20.656;2023-04-08T20:19:47;100649.31;;;8.45;92.32
77299;BME280;66361;52.034;20.656;2023-04-08T20:23:51;100643.59;;;8.35;93.47
77299;BME280;66361;52.034;20.656;2023-04-08T20:27:53;100651.78;;;8.29;95.65
77299;BME280;66361;52.034;20.656;2023-04-08T20:31:58;100645.94;;;8.22;95.79
77299;BME280;66361;52.034;20.656;2023-04-08T20:36:01;100639.19;;;8.17;97.90
77299;BME280;66361;52.034;20.656;2023-04-08T20:40:05;100637.84;;;8.08;98.88
77299;BME280;66361;52.034;20.656;2023-04-08T20:44:09;100637.94;;;8.05;99.47
77299;BME280;66361;52.034;20.656;2023-04-08T20:48:13;100633.75;;;8.01;100.00
77299;BME280;66361;52.034;20.656;2023-04-08T20:52:18;100637.38;;;7.99;100.00
77299;BME280;66361;52.034;20.656;2023-04-08T20:56:21;100637.53;;;7.96;100.00
77299;BME280;66361;52.034;20.656;2023-04-08T21:00:24;100636.81;;;7.92;100.00
77299;BME280;66361;52.034;20.656;2023-04-08T21:04:28;100631.59;;;7.91;100.00
77299;BME280;66361;52.034;20.656;2023-04-08T21:08:32;100637.00;;;7.88;100.00
77299;BME280;66361;52.034;20.656;2023-04-08T21:12:35;100637.19;;;7.83;100.00
77299;BME280;66361;52.034;20.656;2023-04-08T21:16:39;100634.72;;;7.80;100.00
77299;BME280;66361;52.034;20.656;2023-04-08T21:20:43;100627.00;;;7.75;100.00
77299;BME280;66361;52.034;20.656;2023-04-08T21:24:46;100632.50;;;7.71;100.00
77299;BME280;66361;52.034;20.656;2023-04-08T21:28:49;100634.38;;;7.67;100.00
77299;BME280;66361;52.034;20.656;2023-04-08T21:32:52;100624.00;;;7.64;100.00
77299;BME280;66361;52.034;20.656;2023-04-08T21:36:57;100622.38;;;7.62;100.00
77299;BME280;66361;52.034;20.656;2023-04-08T21:41:00;100618.03;;;7.61;100.00